sensor_id;sensor_type;location;lat;lon;timestamp;temperature;humidity
37944;DHT22;23767;42.024;23.086;2024-01-16T00:01:59;6.20;99.90
37944;DHT22;23767;42.024;23.086;2024-01-16T00:04:25;6.30;99.90
37944;DHT22;23767;42.024;23.086;2024-01-16T00:06:52;6.30;99.90
37944;DHT22;23767;42.024;23.086;2024-01-16T00:09:17;6.40;99.90
37944;DHT22;23767;42.024;23.086;2024-01-16T00:11:43;6.50;99.90
37944;DHT22;23767;42.024;23.086;2024-01-16T00:14:09;6.50;99.90
37944;DHT22;23767;42.024;23.086;2024-01-16T00:16:45;6.50;99.90
37944;DHT22;23767;42.024;23.086;2024-01-16T00:19:11;6.50;99.90
37944;DHT22;23767;42.024;23.086;2024-01-16T00:21:44;6.60;99.90
37944;DHT22;23767;42.024;23.086;2024-01-16T00:24:14;6.60;99.90
37944;DHT22;23767;42.024;23.086;2024-01-16T00:26:40;6.70;99.90
37944;DHT22;23767;42.024;23.086;2024-01-16T00:29:05;6.70;99.90
37944;DHT22;23767;42.024;23.086;2024-01-16T00:31:31;6.60;99.90
37944;DHT22;23767;42.024;23.086;2024-01-16T00:33:57;6.40;99.90
37944;DHT22;23767;42.024;23.086;2024-01-16T00:36:22;6.30;99.90
37944;DHT22;23767;42.024;23.086;2024-01-16T00:38:48;6.30;99.90
37944;DHT22;23767;42.024;23.086;2024-01-16T00:41:14;6.20;99.90
37944;DHT22;23767;42.024;23.086;2024-01-16T00:43:45;6.30;99.90
37944;DHT22;23767;42.024;23.086;2024-01-16T00:46:11;6.30;99.90
37944;DHT22;23767;42.024;23.086;2024-01-16T00:48:37;6.40;99.90
37944;DHT22;23767;42.024;23.086;2024-01-16T00:51:03;6.20;99.90
37944;DHT22;23767;42.024;23.086;2024-01-16T00:53:29;6.10;99.90
37944;DHT22;23767;42.024;23.086;2024-01-16T00:55:54;6.10;99.90
37944;DHT22;23767;42.024;23.086;2024-01-16T00:58:24;6.10;99.90
37944;DHT22;23767;42.024;23.086;2024-01-16T01:00:50;6.10;99.90
37944;DHT22;23767;42.024;23.086;2024-01-16T01:03:16;6.20;99.90
37944;DHT22;23767;42.024;23.086;2024-01-16T01:05:41;6.30;99.90
37944;DHT22;23767;42.024;23.086;2024-01-16T01:08:08;6.40;99.90
37944;DHT22;23767;42.024;23.086;2024-01-16T01:10:34;6.50;99.90
37944;DHT22;23767;42.024;23.086;2024-01-16T01:12:59;6.60;99.90
37944;DHT22;23767;42.024;23.086;2024-01-16T01:15:25;6.70;99.90
37944;DHT22;23767;42.024;23.086;2024-01-16T01:17:51;6.70;99.90
37944;DHT22;23767;42.024;23.086;2024-01-16T01:20:18;6.70;99.90
37944;DHT22;23767;42.024;23.086;2024-01-16T01:22:45;6.80;99.90
37944;DHT22;23767;42.024;23.086;2024-01-16T01:25:11;6.80;99.90
37944;DHT22;23767;42.024;23.086;2024-01-16T01:27:38;6.80;99.90
37944;DHT22;23767;42.024;23.086;2024-01-16T01:30:04;6.80;99.90
37944;DHT22;23767;42.024;23.086;2024-01-16T01:32:30;6.80;99.90
37944;DHT22;23767;42.024;23.086;2024-01-16T01:34:56;6.80;99.90
37944;DHT22;23767;42.024;23.086;2024-01-16T01:37:21;6.90;99.90
37944;DHT22;23767;42.024;23.086;2024-01-16T01:39:47;6.80;99.90
37944;DHT22;23767;42.024;23.086;2024-01-16T01:42:12;6.90;99.90
37944;DHT22;23767;42.024;23.086;2024-01-16T01:44:38;6.60;99.90
37944;DHT22;23767;42.024;23.086;2024-01-16T01:47:04;6.60;99.90
37944;DHT22;23767;42.024;23.086;2024-01-16T01:49:31;6.60;99.90
37944;DHT22;23767;42.024;23.086;2024-01-16T01:51:57;6.60;99.90
37944;DHT22;23767;42.024;23.086;2024-01-16T01:54:24;6.60;99.90
37944;DHT22;23767;42.024;23.086;2024-01-16T01:56:51;6.60;99.90
37944;DHT22;23767;42.024;23.086;2024-01-16T01:59:18;6.70;99.90
37944;DHT22;23767;42.024;23.086;2024-01-16T02:01:45;6.80;99.90
37944;DHT22;23767;42.024;23.086;2024-01-16T02:04:14;6.80;99.90
37944;DHT22;23767;42.024;23.086;2024-01-16T02:06:42;6.70;99.90
37944;DHT22;23767;42.024;23.086;2024-01-16T02:09:08;6.80;99.90
37944;DHT22;23767;42.024;23.086;2024-01-16T02:11:33;6.80;99.90
37944;DHT22;23767;42.024;23.086;2024-01-16T02:13:59;6.80;99.90
37944;DHT22;23767;42.024;23.086;2024-01-16T02:16:34;6.70;99.90
37944;DHT22;23767;42.024;23.086;2024-01-16T02:19:00;6.60;99.90
37944;DHT22;23767;42.024;23.086;2024-01-16T02:21:28;6.60;99.90
37944;DHT22;23767;42.024;23.086;2024-01-16T02:23:57;6.70;99.90
37944;DHT22;23767;42.024;23.086;2024-01-16T02:26:23;6.80;99.90
37944;DHT22;23767;42.024;23.086;2024-01-16T02:28:48;6.80;99.90
37944;DHT22;23767;42.024;23.086;2024-01-16T02:31:14;6.80;99.90
37944;DHT22;23767;42.024;23.086;2024-01-16T02:33:40;6.80;99.90
37944;DHT22;23767;42.024;23.086;2024-01-16T02:36:05;6.80;99.90
37944;DHT22;23767;42.024;23.086;2024-01-16T02:38:31;6.80;99.90
37944;DHT22;23767;42.024;23.086;2024-01-16T02:40:57;6.80;99.90
37944;DHT22;23767;42.024;23.086;2024-01-16T02:43:22;6.70;99.90
37944;DHT22;23767;42.024;23.086;2024-01-16T02:45:48;6.50;99.90
37944;DHT22;23767;42.024;23.086;2024-01-16T02:48:14;6.40;99.90
37944;DHT22;23767;42.024;23.086;2024-01-16T02:50:40;6.50;99.90
37944;DHT22;23767;42.024;23.086;2024-01-16T02:53:06;6.50;99.90
37944;DHT22;23767;42.024;23.086;2024-01-16T02:55:32;6.60;99.90
37944;DHT22;23767;42.024;23.086;2024-01-16T02:57:57;6.60;99.90
37944;DHT22;23767;42.024;23.086;2024-01-16T03:00:23;6.60;99.90
37944;DHT22;23767;42.024;23.086;2024-01-16T03:02:48;6.60;99.90
37944;DHT22;23767;42.024;23.086;2024-01-16T03:05:14;6.60;99.90
37944;DHT22;23767;42.024;23.086;2024-01-16T03:07:41;6.60;99.90
37944;DHT22;23767;42.024;23.086;2024-01-16T03:10:06;6.50;99.90
37944;DHT22;23767;42.024;23.086;2024-01-16T03:12:32;6.50;99.90
37944;DHT22;23767;42.024;23.086;2024-01-16T03:14:58;6.40;99.90
37944;DHT22;23767;42.024;23.086;2024-01-16T03:17:24;6.40;99.90
37944;DHT22;23767;42.024;23.086;2024-01-16T03:19:49;6.40;99.90
37944;DHT22;23767;42.024;23.086;2024-01-16T03:22:21;6.50;99.90
37944;DHT22;23767;42.024;23.086;2024-01-16T03:24:48;6.50;99.90
37944;DHT22;23767;42.024;23.086;2024-01-16T03:27:14;6.50;99.90
37944;DHT22;23767;42.024;23.086;2024-01-16T03:29:39;6.50;99.90
37944;DHT22;23767;42.024;23.086;2024-01-16T03:32:05;6.40;99.90
37944;DHT22;23767;42.024;23.086;2024-01-16T03:34:31;6.40;99.90
37944;DHT22;23767;42.024;23.086;2024-01-16T03:36:57;6.50;99.90
37944;DHT22;23767;42.024;23.086;2024-01-16T03:39:22;6.60;99.90
37944;DHT22;23767;42.024;23.086;2024-01-16T03:41:48;6.60;99.90
37944;DHT22;23767;42.024;23.086;2024-01-16T03:44:14;6.60;99.90
37944;DHT22;23767;42.024;23.086;2024-01-16T03:46:39;6.60;99.90
37944;DHT22;23767;42.024;23.086;2024-01-16T03:49:05;6.70;99.90
37944;DHT22;23767;42.024;23.086;2024-01-16T03:51:31;6.70;99.90
37944;DHT22;23767;42.024;23.086;2024-01-16T03:53:56;6.70;99.90
37944;DHT22;23767;42.024;23.086;2024-01-16T03:56:22;6.80;99.90
37944;DHT22;23767;42.024;23.086;2024-01-16T03:58:48;6.70;99.90
37944;DHT22;23767;42.024;23.086;2024-01-16T04:01:14;6.70;99.90
37944;DHT22;23767;42.024;23.086;2024-01-16T04:03:40;6.70;99.90
37944;DHT22;23767;42.024;23.086;2024-01-16T04:06:18;6.70;99.90
37944;DHT22;23767;42.024;23.086;2024-01-16T04:08:45;6.70;99.90
37944;DHT22;23767;42.024;23.086;2024-01-16T04:11:14;6.70;99.90
37944;DHT22;23767;42.024;23.086;2024-01-16T04:13:40;6.70;99.90
37944;DHT22;23767;42.024;23.086;2024-01-16T04:16:06;6.60;99.90
37944;DHT22;23767;42.024;23.086;2024-01-16T04:18:42;6.50;99.90
37944;DHT22;23767;42.024;23.086;2024-01-16T04:21:08;6.30;99.90
37944;DHT22;23767;42.024;23.086;2024-01-16T04:23:34;6.40;99.90
37944;DHT22;23767;42.024;23.086;2024-01-16T04:25:59;6.50;99.90
37944;DHT22;23767;42.024;23.086;2024-01-16T04:28:25;6.50;99.90
37944;DHT22;23767;42.024;23.086;2024-01-16T04:30:51;6.50;99.90
37944;DHT22;23767;42.024;23.086;2024-01-16T04:33:17;6.60;99.90
37944;DHT22;23767;42.024;23.086;2024-01-16T04:35:43;6.60;99.90
37944;DHT22;23767;42.024;23.086;2024-01-16T04:38:09;6.50;99.90
37944;DHT22;23767;42.024;23.086;2024-01-16T04:40:34;6.50;99.90
37944;DHT22;23767;42.024;23.086;2024-01-16T04:43:00;6.50;99.90
37944;DHT22;23767;42.024;23.086;2024-01-16T04:45:26;6.30;99.90
37944;DHT22;23767;42.024;23.086;2024-01-16T04:47:52;6.20;99.90
37944;DHT22;23767;42.024;23.086;2024-01-16T04:50:18;6.10;99.90
37944;DHT22;23767;42.024;23.086;2024-01-16T04:52:44;6.00;99.90
37944;DHT22;23767;42.024;23.086;2024-01-16T04:55:10;5.80;99.90
37944;DHT22;23767;42.024;23.086;2024-01-16T04:57:36;5.60;99.90
37944;DHT22;23767;42.024;23.086;2024-01-16T05:02:47;5.10;99.90
37944;DHT22;23767;42.024;23.086;2024-01-16T05:05:13;5.00;99.90
37944;DHT22;23767;42.024;23.086;2024-01-16T05:07:39;5.10;99.90
37944;DHT22;23767;42.024;23.086;2024-01-16T05:10:05;5.20;99.90
37944;DHT22;23767;42.024;23.086;2024-01-16T05:12:31;5.20;99.90
37944;DHT22;23767;42.024;23.086;2024-01-16T05:14:57;5.20;99.90
37944;DHT22;23767;42.024;23.086;2024-01-16T05:17:23;5.20;99.90
37944;DHT22;23767;42.024;23.086;2024-01-16T05:19:49;5.30;99.90
37944;DHT22;23767;42.024;23.086;2024-01-16T05:22:15;5.40;99.90
37944;DHT22;23767;42.024;23.086;2024-01-16T05:24:41;5.40;99.90
37944;DHT22;23767;42.024;23.086;2024-01-16T05:27:06;5.40;99.90
37944;DHT22;23767;42.024;23.086;2024-01-16T05:29:32;5.50;99.90
37944;DHT22;23767;42.024;23.086;2024-01-16T05:31:58;5.60;99.90
37944;DHT22;23767;42.024;23.086;2024-01-16T05:34:24;5.70;99.90
37944;DHT22;23767;42.024;23.086;2024-01-16T05:36:50;5.70;99.90
37944;DHT22;23767;42.024;23.086;2024-01-16T05:39:15;5.70;99.90
37944;DHT22;23767;42.024;23.086;2024-01-16T05:41:42;5.60;99.90
37944;DHT22;23767;42.024;23.086;2024-01-16T05:44:08;5.50;99.90
37944;DHT22;23767;42.024;23.086;2024-01-16T05:46:34;5.60;99.90
37944;DHT22;23767;42.024;23.086;2024-01-16T05:48:59;5.50;99.90
37944;DHT22;23767;42.024;23.086;2024-01-16T05:51:27;5.60;99.90
37944;DHT22;23767;42.024;23.086;2024-01-16T05:53:54;5.70;99.90
37944;DHT22;23767;42.024;23.086;2024-01-16T05:56:20;5.90;99.90
37944;DHT22;23767;42.024;23.086;2024-01-16T05:58:46;6.00;99.90
37944;DHT22;23767;42.024;23.086;2024-01-16T06:01:12;6.10;99.90
37944;DHT22;23767;42.024;23.086;2024-01-16T06:03:40;6.20;99.90
37944;DHT22;23767;42.024;23.086;2024-01-16T06:06:07;6.30;99.90
37944;DHT22;23767;42.024;23.086;2024-01-16T06:08:33;6.40;99.90
37944;DHT22;23767;42.024;23.086;2024-01-16T06:10:59;6.40;99.90
37944;DHT22;23767;42.024;23.086;2024-01-16T06:13:24;6.30;99.90
37944;DHT22;23767;42.024;23.086;2024-01-16T06:15:50;6.20;99.90
37944;DHT22;23767;42.024;23.086;2024-01-16T06:18:16;6.20;99.90
37944;DHT22;23767;42.024;23.086;2024-01-16T06:20:41;6.20;99.90
37944;DHT22;23767;42.024;23.086;2024-01-16T06:23:07;6.30;99.90
37944;DHT22;23767;42.024;23.086;2024-01-16T06:25:33;6.30;99.90
37944;DHT22;23767;42.024;23.086;2024-01-16T06:27:58;6.30;99.90
37944;DHT22;23767;42.024;23.086;2024-01-16T06:30:24;6.30;99.90
37944;DHT22;23767;42.024;23.086;2024-01-16T06:32:50;6.30;99.90
37944;DHT22;23767;42.024;23.086;2024-01-16T06:35:16;6.30;99.90
37944;DHT22;23767;42.024;23.086;2024-01-16T06:37:42;6.30;99.90
37944;DHT22;23767;42.024;23.086;2024-01-16T06:40:09;6.30;99.90
37944;DHT22;23767;42.024;23.086;2024-01-16T06:42:35;6.40;99.90
37944;DHT22;23767;42.024;23.086;2024-01-16T06:45:03;6.40;99.90
37944;DHT22;23767;42.024;23.086;2024-01-16T06:47:29;6.30;99.90
37944;DHT22;23767;42.024;23.086;2024-01-16T06:49:55;6.10;99.90
37944;DHT22;23767;42.024;23.086;2024-01-16T06:52:20;5.70;99.90
37944;DHT22;23767;42.024;23.086;2024-01-16T06:54:46;5.50;99.90
37944;DHT22;23767;42.024;23.086;2024-01-16T06:57:12;5.50;99.90
37944;DHT22;23767;42.024;23.086;2024-01-16T06:59:37;5.40;99.90
37944;DHT22;23767;42.024;23.086;2024-01-16T07:02:03;5.30;99.90
37944;DHT22;23767;42.024;23.086;2024-01-16T07:04:29;5.10;99.90
37944;DHT22;23767;42.024;23.086;2024-01-16T07:06:55;5.10;99.90
37944;DHT22;23767;42.024;23.086;2024-01-16T07:09:20;5.00;99.90
37944;DHT22;23767;42.024;23.086;2024-01-16T07:11:47;5.00;99.90
37944;DHT22;23767;42.024;23.086;2024-01-16T07:14:13;4.90;99.90
37944;DHT22;23767;42.024;23.086;2024-01-16T07:16:39;4.90;99.90
37944;DHT22;23767;42.024;23.086;2024-01-16T07:19:05;4.90;99.90
37944;DHT22;23767;42.024;23.086;2024-01-16T07:21:30;4.80;99.90
37944;DHT22;23767;42.024;23.086;2024-01-16T07:23:57;4.80;99.90
37944;DHT22;23767;42.024;23.086;2024-01-16T07:26:23;4.80;99.90
37944;DHT22;23767;42.024;23.086;2024-01-16T07:28:49;4.70;99.90
37944;DHT22;23767;42.024;23.086;2024-01-16T07:31:16;4.60;99.90
37944;DHT22;23767;42.024;23.086;2024-01-16T07:33:42;4.50;99.90
37944;DHT22;23767;42.024;23.086;2024-01-16T07:36:08;4.50;99.90
37944;DHT22;23767;42.024;23.086;2024-01-16T07:38:35;4.40;99.90
37944;DHT22;23767;42.024;23.086;2024-01-16T07:41:04;4.40;99.90
37944;DHT22;23767;42.024;23.086;2024-01-16T07:43:31;4.40;99.90
37944;DHT22;23767;42.024;23.086;2024-01-16T07:45:57;4.30;99.90
37944;DHT22;23767;42.024;23.086;2024-01-16T07:48:23;4.20;99.90
37944;DHT22;23767;42.024;23.086;2024-01-16T07:50:49;4.10;99.90
37944;DHT22;23767;42.024;23.086;2024-01-16T07:53:15;4.10;99.90
37944;DHT22;23767;42.024;23.086;2024-01-16T07:55:41;4.10;99.90
37944;DHT22;23767;42.024;23.086;2024-01-16T07:58:07;4.00;99.90
37944;DHT22;23767;42.024;23.086;2024-01-16T08:00:33;3.90;99.90
37944;DHT22;23767;42.024;23.086;2024-01-16T08:02:58;3.90;99.90
37944;DHT22;23767;42.024;23.086;2024-01-16T08:05:24;3.90;99.90
37944;DHT22;23767;42.024;23.086;2024-01-16T08:07:53;3.80;99.90
37944;DHT22;23767;42.024;23.086;2024-01-16T08:10:19;3.80;99.90
37944;DHT22;23767;42.024;23.086;2024-01-16T08:12:45;3.80;99.90
37944;DHT22;23767;42.024;23.086;2024-01-16T08:15:11;3.70;99.90
37944;DHT22;23767;42.024;23.086;2024-01-16T08:17:36;3.80;99.90
37944;DHT22;23767;42.024;23.086;2024-01-16T08:20:02;3.90;99.90
37944;DHT22;23767;42.024;23.086;2024-01-16T08:22:29;3.90;99.90
37944;DHT22;23767;42.024;23.086;2024-01-16T08:24:54;4.00;99.90
37944;DHT22;23767;42.024;23.086;2024-01-16T08:27:20;4.20;99.90
37944;DHT22;23767;42.024;23.086;2024-01-16T08:29:46;4.10;99.90
37944;DHT22;23767;42.024;23.086;2024-01-16T08:32:15;4.10;99.90
37944;DHT22;23767;42.024;23.086;2024-01-16T08:34:41;4.10;99.90
37944;DHT22;23767;42.024;23.086;2024-01-16T08:37:07;4.20;99.90
37944;DHT22;23767;42.024;23.086;2024-01-16T08:39:32;4.30;99.90
37944;DHT22;23767;42.024;23.086;2024-01-16T08:41:59;4.30;99.90
37944;DHT22;23767;42.024;23.086;2024-01-16T08:44:27;4.30;99.90
37944;DHT22;23767;42.024;23.086;2024-01-16T08:46:53;4.40;99.90
37944;DHT22;23767;42.024;23.086;2024-01-16T08:49:19;4.40;99.90
37944;DHT22;23767;42.024;23.086;2024-01-16T08:51:46;4.30;99.90
37944;DHT22;23767;42.024;23.086;2024-01-16T08:54:11;4.30;99.90
37944;DHT22;23767;42.024;23.086;2024-01-16T08:56:37;4.40;99.90
37944;DHT22;23767;42.024;23.086;2024-01-16T08:59:03;4.50;99.90
37944;DHT22;23767;42.024;23.086;2024-01-16T09:01:28;4.50;99.90
37944;DHT22;23767;42.024;23.086;2024-01-16T09:03:54;4.40;99.90
37944;DHT22;23767;42.024;23.086;2024-01-16T09:06:19;4.30;99.90
37944;DHT22;23767;42.024;23.086;2024-01-16T09:08:46;4.30;99.90
37944;DHT22;23767;42.024;23.086;2024-01-16T09:11:11;4.30;99.90
37944;DHT22;23767;42.024;23.086;2024-01-16T09:13:40;4.20;99.90
37944;DHT22;23767;42.024;23.086;2024-01-16T09:16:06;4.10;99.90
37944;DHT22;23767;42.024;23.086;2024-01-16T09:18:31;4.10;99.90
37944;DHT22;23767;42.024;23.086;2024-01-16T09:20:57;4.00;99.90
37944;DHT22;23767;42.024;23.086;2024-01-16T09:23:23;4.00;99.90
37944;DHT22;23767;42.024;23.086;2024-01-16T09:25:49;4.10;99.90
37944;DHT22;23767;42.024;23.086;2024-01-16T09:28:15;4.10;99.90
37944;DHT22;23767;42.024;23.086;2024-01-16T09:30:42;4.10;99.90
37944;DHT22;23767;42.024;23.086;2024-01-16T09:33:07;4.20;99.90
37944;DHT22;23767;42.024;23.086;2024-01-16T09:35:36;4.20;99.90
37944;DHT22;23767;42.024;23.086;2024-01-16T09:38:01;4.30;99.90
37944;DHT22;23767;42.024;23.086;2024-01-16T09:40:27;4.30;99.90
37944;DHT22;23767;42.024;23.086;2024-01-16T09:42:53;4.30;99.90
37944;DHT22;23767;42.024;23.086;2024-01-16T09:45:22;4.30;99.90
37944;DHT22;23767;42.024;23.086;2024-01-16T09:47:50;4.30;99.90
37944;DHT22;23767;42.024;23.086;2024-01-16T09:50:16;4.30;99.90
37944;DHT22;23767;42.024;23.086;2024-01-16T09:52:48;4.50;99.90
37944;DHT22;23767;42.024;23.086;2024-01-16T09:55:15;4.70;99.90
37944;DHT22;23767;42.024;23.086;2024-01-16T09:57:41;4.80;99.90
37944;DHT22;23767;42.024;23.086;2024-01-16T10:00:11;4.90;99.90
37944;DHT22;23767;42.024;23.086;2024-01-16T10:02:41;5.20;99.90
37944;DHT22;23767;42.024;23.086;2024-01-16T10:05:11;5.30;99.90
37944;DHT22;23767;42.024;23.086;2024-01-16T10:07:38;5.40;99.90
37944;DHT22;23767;42.024;23.086;2024-01-16T10:10:04;5.50;99.90
37944;DHT22;23767;42.024;23.086;2024-01-16T10:12:31;5.60;99.90
37944;DHT22;23767;42.024;23.086;2024-01-16T10:14:57;5.80;99.90
37944;DHT22;23767;42.024;23.086;2024-01-16T10:17:36;5.90;99.90
37944;DHT22;23767;42.024;23.086;2024-01-16T10:20:02;5.80;99.90
37944;DHT22;23767;42.024;23.086;2024-01-16T10:22:30;5.80;99.90
37944;DHT22;23767;42.024;23.086;2024-01-16T10:25:06;5.80;99.60
37944;DHT22;23767;42.024;23.086;2024-01-16T10:27:34;5.60;99.00
37944;DHT22;23767;42.024;23.086;2024-01-16T10:30:00;5.60;99.90
37944;DHT22;23767;42.024;23.086;2024-01-16T10:32:38;5.40;99.10
37944;DHT22;23767;42.024;23.086;2024-01-16T10:37:48;5.20;99.40
37944;DHT22;23767;42.024;23.086;2024-01-16T10:40:18;5.30;99.20
37944;DHT22;23767;42.024;23.086;2024-01-16T10:42:44;5.40;99.60
37944;DHT22;23767;42.024;23.086;2024-01-16T10:45:18;5.40;99.20
37944;DHT22;23767;42.024;23.086;2024-01-16T10:47:46;5.50;98.90
37944;DHT22;23767;42.024;23.086;2024-01-16T10:50:12;5.80;98.60
37944;DHT22;23767;42.024;23.086;2024-01-16T10:52:46;5.80;97.80
37944;DHT22;23767;42.024;23.086;2024-01-16T10:55:19;5.80;96.90
37944;DHT22;23767;42.024;23.086;2024-01-16T10:57:48;5.70;97.70
37944;DHT22;23767;42.024;23.086;2024-01-16T11:00:18;5.70;97.90
37944;DHT22;23767;42.024;23.086;2024-01-16T11:02:50;5.70;97.80
37944;DHT22;23767;42.024;23.086;2024-01-16T11:05:20;5.70;97.60
37944;DHT22;23767;42.024;23.086;2024-01-16T11:07:48;5.70;98.00
37944;DHT22;23767;42.024;23.086;2024-01-16T11:10:15;5.70;97.90
37944;DHT22;23767;42.024;23.086;2024-01-16T11:12:41;5.70;97.60
37944;DHT22;23767;42.024;23.086;2024-01-16T11:15:09;5.80;97.20
37944;DHT22;23767;42.024;23.086;2024-01-16T11:17:38;5.70;96.50
37944;DHT22;23767;42.024;23.086;2024-01-16T11:20:05;5.50;97.00
37944;DHT22;23767;42.024;23.086;2024-01-16T11:22:39;5.60;97.60
37944;DHT22;23767;42.024;23.086;2024-01-16T11:25:13;5.70;97.10
37944;DHT22;23767;42.024;23.086;2024-01-16T11:27:41;5.80;97.20
37944;DHT22;23767;42.024;23.086;2024-01-16T11:30:11;5.90;97.20
37944;DHT22;23767;42.024;23.086;2024-01-16T11:32:38;6.00;96.70
37944;DHT22;23767;42.024;23.086;2024-01-16T11:35:09;5.90;96.00
37944;DHT22;23767;42.024;23.086;2024-01-16T11:37:40;5.80;96.70
37944;DHT22;23767;42.024;23.086;2024-01-16T11:42:50;5.80;96.50
37944;DHT22;23767;42.024;23.086;2024-01-16T11:48:14;5.70;96.80
37944;DHT22;23767;42.024;23.086;2024-01-16T11:50:40;5.80;97.00
37944;DHT22;23767;42.024;23.086;2024-01-16T11:53:07;5.80;97.20
37944;DHT22;23767;42.024;23.086;2024-01-16T11:58:48;5.80;97.00
37944;DHT22;23767;42.024;23.086;2024-01-16T12:01:17;5.80;96.80
37944;DHT22;23767;42.024;23.086;2024-01-16T12:03:42;5.80;97.30
37944;DHT22;23767;42.024;23.086;2024-01-16T12:06:08;5.90;96.60
37944;DHT22;23767;42.024;23.086;2024-01-16T12:08:34;6.00;97.00
37944;DHT22;23767;42.024;23.086;2024-01-16T12:11:02;6.00;96.70
37944;DHT22;23767;42.024;23.086;2024-01-16T12:13:28;6.10;96.10
37944;DHT22;23767;42.024;23.086;2024-01-16T12:16:02;6.10;96.50
37944;DHT22;23767;42.024;23.086;2024-01-16T12:18:29;6.20;96.40
37944;DHT22;23767;42.024;23.086;2024-01-16T12:20:55;6.40;96.00
37944;DHT22;23767;42.024;23.086;2024-01-16T12:23:21;6.50;95.70
37944;DHT22;23767;42.024;23.086;2024-01-16T12:25:52;6.60;96.10
37944;DHT22;23767;42.024;23.086;2024-01-16T12:28:20;6.70;94.90
37944;DHT22;23767;42.024;23.086;2024-01-16T12:30:50;6.80;94.50
37944;DHT22;23767;42.024;23.086;2024-01-16T12:33:20;6.70;94.30
37944;DHT22;23767;42.024;23.086;2024-01-16T12:35:46;6.50;95.00
37944;DHT22;23767;42.024;23.086;2024-01-16T12:38:13;6.50;95.70
37944;DHT22;23767;42.024;23.086;2024-01-16T12:40:49;6.60;94.80
37944;DHT22;23767;42.024;23.086;2024-01-16T12:43:18;6.40;94.50
37944;DHT22;23767;42.024;23.086;2024-01-16T12:45:45;6.30;94.80
37944;DHT22;23767;42.024;23.086;2024-01-16T12:48:11;6.30;95.00
37944;DHT22;23767;42.024;23.086;2024-01-16T12:50:37;6.30;94.70
37944;DHT22;23767;42.024;23.086;2024-01-16T12:53:08;6.40;94.70
37944;DHT22;23767;42.024;23.086;2024-01-16T12:55:36;6.40;94.60
37944;DHT22;23767;42.024;23.086;2024-01-16T12:58:20;6.60;94.30
37944;DHT22;23767;42.024;23.086;2024-01-16T13:00:49;6.60;94.00
37944;DHT22;23767;42.024;23.086;2024-01-16T13:05:46;6.50;94.60
37944;DHT22;23767;42.024;23.086;2024-01-16T13:08:19;6.70;94.30
37944;DHT22;23767;42.024;23.086;2024-01-16T13:11:10;6.90;93.70
37944;DHT22;23767;42.024;23.086;2024-01-16T13:13:36;7.00;93.50
37944;DHT22;23767;42.024;23.086;2024-01-16T13:16:04;7.20;93.70
37944;DHT22;23767;42.024;23.086;2024-01-16T13:18:33;7.30;92.60
37944;DHT22;23767;42.024;23.086;2024-01-16T13:21:00;7.30;92.70
37944;DHT22;23767;42.024;23.086;2024-01-16T13:23:27;7.30;93.10
37944;DHT22;23767;42.024;23.086;2024-01-16T13:25:54;7.50;92.90
37944;DHT22;23767;42.024;23.086;2024-01-16T13:28:26;7.60;92.00
37944;DHT22;23767;42.024;23.086;2024-01-16T13:30:53;7.70;91.90
37944;DHT22;23767;42.024;23.086;2024-01-16T13:33:18;7.70;91.60
37944;DHT22;23767;42.024;23.086;2024-01-16T13:35:45;7.80;92.10
37944;DHT22;23767;42.024;23.086;2024-01-16T13:38:15;7.90;91.00
37944;DHT22;23767;42.024;23.086;2024-01-16T13:40:44;7.70;91.00
37944;DHT22;23767;42.024;23.086;2024-01-16T13:43:10;7.70;91.20
37944;DHT22;23767;42.024;23.086;2024-01-16T13:45:39;7.80;91.50
37944;DHT22;23767;42.024;23.086;2024-01-16T13:48:07;7.70;91.30
37944;DHT22;23767;42.024;23.086;2024-01-16T13:50:33;7.70;91.70
37944;DHT22;23767;42.024;23.086;2024-01-16T13:52:59;7.80;91.40
37944;DHT22;23767;42.024;23.086;2024-01-16T13:55:25;8.00;91.80
37944;DHT22;23767;42.024;23.086;2024-01-16T13:57:51;8.20;91.90
37944;DHT22;23767;42.024;23.086;2024-01-16T14:00:17;8.30;91.50
37944;DHT22;23767;42.024;23.086;2024-01-16T14:02:45;8.40;90.40
37944;DHT22;23767;42.024;23.086;2024-01-16T14:05:15;8.30;89.40
37944;DHT22;23767;42.024;23.086;2024-01-16T14:07:41;8.30;90.40
37944;DHT22;23767;42.024;23.086;2024-01-16T14:10:11;8.30;90.50
37944;DHT22;23767;42.024;23.086;2024-01-16T14:12:38;8.40;90.90
37944;DHT22;23767;42.024;23.086;2024-01-16T14:15:05;8.50;90.40
37944;DHT22;23767;42.024;23.086;2024-01-16T14:17:35;8.50;90.60
37944;DHT22;23767;42.024;23.086;2024-01-16T14:20:01;8.50;90.50
37944;DHT22;23767;42.024;23.086;2024-01-16T14:22:26;8.40;90.60
37944;DHT22;23767;42.024;23.086;2024-01-16T14:24:53;8.40;90.70
37944;DHT22;23767;42.024;23.086;2024-01-16T14:27:19;8.40;90.80
37944;DHT22;23767;42.024;23.086;2024-01-16T14:29:44;8.40;90.90
37944;DHT22;23767;42.024;23.086;2024-01-16T14:32:10;8.40;91.00
37944;DHT22;23767;42.024;23.086;2024-01-16T14:34:36;8.50;90.90
37944;DHT22;23767;42.024;23.086;2024-01-16T14:37:01;8.50;91.20
37944;DHT22;23767;42.024;23.086;2024-01-16T14:39:27;8.50;91.30
37944;DHT22;23767;42.024;23.086;2024-01-16T14:41:56;8.40;90.90
37944;DHT22;23767;42.024;23.086;2024-01-16T14:44:23;8.30;91.00
37944;DHT22;23767;42.024;23.086;2024-01-16T14:46:49;8.30;91.40
37944;DHT22;23767;42.024;23.086;2024-01-16T14:49:15;8.20;91.40
37944;DHT22;23767;42.024;23.086;2024-01-16T14:51:41;8.10;91.40
37944;DHT22;23767;42.024;23.086;2024-01-16T14:54:07;8.10;91.70
37944;DHT22;23767;42.024;23.086;2024-01-16T14:56:32;8.00;91.90
37944;DHT22;23767;42.024;23.086;2024-01-16T14:58:59;8.00;91.80
37944;DHT22;23767;42.024;23.086;2024-01-16T15:01:24;8.00;91.90
37944;DHT22;23767;42.024;23.086;2024-01-16T15:03:50;7.90;91.50
37944;DHT22;23767;42.024;23.086;2024-01-16T15:06:16;7.90;91.70
37944;DHT22;23767;42.024;23.086;2024-01-16T15:08:43;7.80;92.00
37944;DHT22;23767;42.024;23.086;2024-01-16T15:11:09;7.60;92.30
37944;DHT22;23767;42.024;23.086;2024-01-16T15:13:34;7.60;92.30
37944;DHT22;23767;42.024;23.086;2024-01-16T15:16:00;7.20;92.80
37944;DHT22;23767;42.024;23.086;2024-01-16T15:18:26;7.10;94.00
37944;DHT22;23767;42.024;23.086;2024-01-16T15:20:53;7.20;94.20
37944;DHT22;23767;42.024;23.086;2024-01-16T15:23:18;7.20;94.00
37944;DHT22;23767;42.024;23.086;2024-01-16T15:25:44;7.20;94.10
37944;DHT22;23767;42.024;23.086;2024-01-16T15:28:10;7.30;94.20
37944;DHT22;23767;42.024;23.086;2024-01-16T15:30:35;7.20;94.40
37944;DHT22;23767;42.024;23.086;2024-01-16T15:33:02;7.20;94.70
37944;DHT22;23767;42.024;23.086;2024-01-16T15:35:31;7.00;94.70
37944;DHT22;23767;42.024;23.086;2024-01-16T15:37:57;6.70;95.70
37944;DHT22;23767;42.024;23.086;2024-01-16T15:40:23;6.50;96.50
37944;DHT22;23767;42.024;23.086;2024-01-16T15:42:49;6.60;96.90
37944;DHT22;23767;42.024;23.086;2024-01-16T15:45:15;6.60;97.00